バンギ の空港の天気 - METARとTAF

バンギ・ムポコ国際空港 ( FEFF / BGF ) - 中央アフリカ バンギ
飛行場実況気象(Metar)
観測時間07/16 07:00 WAT (07/16 06:00 UTC)
風向・風速静穏 0m/s
視程6000m
天気現象
全天の8割程度の雲 雲底高度 150m
気温20℃
湿度100%
気圧1014hPa
METARFEFF 160600Z 00000KT 6000 BKN005 20/20 Q1014 BECMG BKN010
過去の天気等 Google飛行場航空写真 Wunderground天気予報

過去48時間のMETAR

飛行場予報(TAF)
発表時間: 7/16 06:00 WAT (7/16 05:00 UTC)
予報対象時間: 16日7時 WAT ~ 17日13時 WAT
風向・風速不定 2m/s
視程4000m
天気現象もや
全天の8割程度の雲 雲底高度 180m
16日8時 WAT ~ 16日9時 WAT に一時的に
視程10km以上
全天の8割程度の雲 雲底高度 300m
16日10時 WAT ~ 16日12時 WAT に徐々に
全天の4割程度の雲 雲底高度 790m
16日16時 WAT ~ 16日21時 WAT に一時的に
風向・風速東 8m/s
天気現象雷雨
全天の8割程度の雲 雲底高度 400m
少しの積乱雲 雲底高度 1010m
17日4時 WAT ~ 17日8時 WAT に一時的に
視程3000m
天気現象もや
全天の8割程度の雲 雲底高度 150m
TAF FEFF 160500Z 1606/1712 VRB03KT 4000 BR BKN006
TEMPO 1607/1608 9999 BKN010
BECMG 1609/1611 SCT026
TEMPO 1615/1620 09015KT TSRA BKN013 FEW033CB
TEMPO 1703/1707 3000 BR BKN005